Time;durP1;ratioP1;P1;durP2;ratioP2;P2;SDS_P1;SDS_P2;PMS_P1;PMS_P2;Temp;Humidity;BMP_temperature;BMP_pressure;BME280_temperature;BME280_humidity;BME280_pressure;Samples;Min_cycle;Max_cycle;Signal;HPM_P1;HPM_P2
2022/11/28 00:08:52;;;;;;;1.42;1.33;;;;;;;8.75;68.85;101451.97;18427401;32;20111;-60
2022/11/28 00:18:56;;;;;;;10.15;2.25;;;;;;;8.77;69.21;101465.03;18426793;32;20406;-59
2022/11/28 00:29:00;;;;;;;0.70;0.70;;;;;;;8.82;69.04;101466.00;18426337;32;20495;-60
2022/11/28 00:39:04;;;;;;;1.52;1.20;;;;;;;8.79;69.25;101469.44;18411380;32;20149;-59
2022/11/28 00:49:09;;;;;;;1.25;0.95;;;;;;;8.71;69.80;101476.19;18424922;32;20111;-60
2022/11/28 00:59:12;;;;;;;1.15;0.95;;;;;;;8.78;69.48;101461.59;18419446;32;158444;-59
2022/11/28 01:09:18;;;;;;;0.50;0.50;;;;;;;8.80;69.41;101475.50;18429263;32;20364;-59
2022/11/28 01:19:21;;;;;;;1.58;1.48;;;;;;;8.84;69.16;101466.94;18432715;32;20101;-60
2022/11/28 01:29:26;;;;;;;0.68;0.68;;;;;;;8.78;69.08;101461.59;18433473;32;20140;-59
2022/11/28 01:39:29;;;;;;;1.33;0.82;;;;;;;8.87;69.09;101462.69;18432292;32;20418;-59
2022/11/28 01:49:35;;;;;;;5.65;2.75;;;;;;;8.88;68.70;101448.81;18431213;32;20350;-59
2022/11/28 01:59:41;;;;;;;0.70;0.70;;;;;;;8.71;69.32;101435.41;18431572;32;20105;-59
2022/11/28 02:09:45;;;;;;;1.90;1.75;;;;;;;8.67;69.21;101417.97;18431057;32;20117;-59
2022/11/28 02:20:22;;;;;;;2.17;2.05;;;;;;;8.28;70.65;101418.81;18430655;32;20089;-60
2022/11/28 02:30:30;;;;;;;3.05;1.17;;;;;;;8.45;69.97;101401.88;18430696;32;20084;-59
2022/11/28 02:40:38;;;;;;;0.70;0.70;;;;;;;8.18;71.36;101396.88;18430431;32;20104;-59
2022/11/28 02:50:47;;;;;;;1.25;1.20;;;;;;;8.59;69.72;101394.41;18430375;32;20103;-59
2022/11/28 03:00:52;;;;;;;0.98;0.98;;;;;;;8.56;69.54;101386.50;18429607;32;20097;-59
2022/11/28 03:11:00;;;;;;;0.82;0.75;;;;;;;8.53;69.45;101383.84;18429772;32;20101;-59
2022/11/28 03:21:10;;;;;;;0.60;0.60;;;;;;;8.27;69.92;101376.28;18429335;32;20132;-59
2022/11/28 03:31:15;;;;;;;0.90;0.90;;;;;;;8.37;69.12;101366.09;18428574;32;20425;-59
2022/11/28 03:41:35;;;;;;;1.12;1.08;;;;;;;7.68;71.49;101359.28;18428598;32;20174;-59
2022/11/28 03:51:44;;;;;;;4.85;1.73;;;;;;;8.16;69.41;101341.34;18428215;32;20089;-59
2022/11/28 04:01:54;;;;;;;1.65;0.82;;;;;;;7.03;72.66;101327.31;18427579;32;20097;-59
2022/11/28 04:12:06;;;;;;;0.60;0.60;;;;;;;6.37;75.46;101314.19;18427282;32;20175;-59
2022/11/28 04:22:15;;;;;;;1.05;1.05;;;;;;;7.55;70.25;101313.91;18426594;32;20379;-60
2022/11/28 04:32:19;;;;;;;3.95;1.58;;;;;;;7.74;68.33;101296.19;18426322;32;20068;-60
2022/11/28 04:42:26;;;;;;;0.60;0.60;;;;;;;7.59;68.46;101294.09;18428602;32;20120;-59
2022/11/28 04:52:35;;;;;;;0.70;0.70;;;;;;;7.73;68.31;101300.50;18433659;32;20118;-59
2022/11/28 05:02:41;;;;;;;1.12;1.12;;;;;;;7.70;69.21;101294.37;18433160;32;20465;-59
2022/11/28 05:12:44;;;;;;;0.60;0.60;;;;;;;7.73;69.30;101279.72;18434172;32;20112;-59
2022/11/28 05:22:48;;;;;;;1.55;1.48;;;;;;;7.89;68.33;101291.34;18432545;32;20094;-59
2022/11/28 05:32:52;;;;;;;0.70;0.70;;;;;;;7.96;67.98;101296.66;18433370;32;20121;-60
2022/11/28 05:42:56;;;;;;;0.65;0.65;;;;;;;7.90;67.79;101303.50;18432099;32;20191;-59
2022/11/28 05:52:59;;;;;;;0.65;0.65;;;;;;;7.90;67.81;101318.22;18431287;32;20092;-59
2022/11/28 06:03:04;;;;;;;0.77;0.77;;;;;;;7.78;68.14;101327.47;18430901;32;20112;-59
2022/11/28 06:13:07;;;;;;;0.80;0.80;;;;;;;7.69;68.80;101339.38;18413225;32;20089;-59
2022/11/28 06:23:12;;;;;;;0.77;0.77;;;;;;;7.58;68.96;101332.19;18403220;32;20111;-59
2022/11/28 06:33:15;;;;;;;1.15;1.15;;;;;;;7.78;68.31;101324.03;18431094;32;20531;-59
2022/11/28 06:43:19;;;;;;;1.42;1.33;;;;;;;7.70;68.37;101330.75;18431482;32;20117;-59
2022/11/28 06:53:22;;;;;;;0.80;0.80;;;;;;;7.55;68.43;101339.91;18432047;32;20433;-60
2022/11/28 07:03:33;;;;;;;0.80;0.80;;;;;;;7.18;69.82;101346.72;18429933;32;20109;-59
2022/11/28 07:13:36;;;;;;;0.60;0.60;;;;;;;7.56;68.33;101349.44;18428280;32;20115;-59
2022/11/28 07:23:42;;;;;;;1.20;1.20;;;;;;;8.39;70.68;101340.97;18420644;32;20133;-59
2022/11/28 07:33:47;;;;;;;2.05;1.60;;;;;;;8.27;67.25;101333.81;18406517;32;20133;-59
2022/11/28 07:43:54;;;;;;;0.60;0.60;;;;;;;7.12;70.09;101342.25;18419147;32;20182;-59
2022/11/28 07:53:57;;;;;;;1.45;1.35;;;;;;;7.45;68.09;101333.59;18418821;32;20096;-59
2022/11/28 08:04:02;;;;;;;0.85;0.85;;;;;;;7.45;68.38;101318.03;18412408;32;20104;-59
2022/11/28 08:14:06;;;;;;;1.87;1.77;;;;;;;7.80;67.40;101316.25;18426222;32;20129;-59
2022/11/28 08:24:11;;;;;;;0.60;0.60;;;;;;;8.01;66.72;101313.28;18425988;32;20116;-60
2022/11/28 08:34:14;;;;;;;1.02;1.02;;;;;;;7.35;67.53;101311.69;18426091;32;20115;-59
2022/11/28 08:44:18;;;;;;;3.83;3.62;;;;;;;8.01;66.01;101311.53;18410992;32;20093;-59
2022/11/28 08:54:22;;;;;;;0.98;0.98;;;;;;;7.80;61.76;101327.53;18423065;32;20108;-60
2022/11/28 09:04:26;;;;;;;1.77;1.62;;;;;;;6.76;64.50;101327.41;18421830;32;20113;-59
2022/11/28 09:14:29;;;;;;;1.20;1.20;;;;;;;7.59;62.25;101317.47;18423325;32;20140;-59
2022/11/28 09:24:34;;;;;;;1.65;1.12;;;;;;;7.62;60.19;101323.62;18422998;32;20097;-59
2022/11/28 09:34:37;;;;;;;0.80;0.80;;;;;;;8.15;57.90;101305.78;18418329;32;20101;-60
2022/11/28 09:44:46;;;;;;;0.75;0.75;;;;;;;8.39;58.32;101301.94;18431217;32;20179;-60
2022/11/28 09:54:52;;;;;;;0.60;0.60;;;;;;;8.38;58.81;101285.47;18418362;32;20486;-60
2022/11/28 10:05:05;;;;;;;1.05;1.05;;;;;;;8.58;59.35;101278.13;18430255;32;20401;-60
2022/11/28 10:15:22;;;;;;;1.05;1.05;;;;;;;8.77;58.72;101261.97;18429522;32;20116;-60
2022/11/28 10:25:28;;;;;;;1.00;0.95;;;;;;;8.44;59.33;101259.59;18422986;32;20130;-60
2022/11/28 10:35:38;;;;;;;2.25;2.08;;;;;;;8.22;59.12;101236.56;18426021;32;20084;-60
2022/11/28 10:45:48;;;;;;;2.50;1.98;;;;;;;8.13;59.11;101235.53;18417002;32;20658;-60
2022/11/28 10:56:04;;;;;;;1.90;1.37;;;;;;;8.32;58.14;101221.19;18415109;32;20115;-59
2022/11/28 11:06:14;;;;;;;0.80;0.80;;;;;;;7.52;60.32;101224.63;18429904;32;20096;-59
2022/11/28 11:16:18;;;;;;;1.90;1.73;;;;;;;8.54;58.52;101224.25;18430613;32;20119;-59
2022/11/28 11:26:25;;;;;;;0.62;0.62;;;;;;;8.80;55.88;101213.44;18399108;32;20477;-60
2022/11/28 11:36:29;;;;;;;1.27;0.80;;;;;;;8.39;57.11;101214.38;18366129;32;20093;-60
2022/11/28 11:46:36;;;;;;;0.93;0.85;;;;;;;8.60;54.95;101208.75;18364565;32;20093;-60
2022/11/28 11:56:43;;;;;;;0.60;0.60;;;;;;;8.81;55.13;101190.88;18363166;32;20115;-60
2022/11/28 12:06:50;;;;;;;1.35;1.00;;;;;;;8.67;54.75;101196.72;18363793;32;20121;-60
2022/11/28 12:17:02;;;;;;;4.32;1.37;;;;;;;8.56;56.69;101191.31;18378982;32;20080;-59
2022/11/28 12:27:35;;;;;;;0.77;0.77;;;;;;;8.61;56.05;101188.78;18425325;32;20120;-61
2022/11/28 12:37:46;;;;;;;1.42;1.33;;;;;;;8.04;56.22;101193.72;18418952;32;20084;-60
2022/11/28 12:48:20;;;;;;;1.23;1.12;;;;;;;8.22;55.06;101185.44;18420373;32;20444;-60
2022/11/28 12:58:28;;;;;;;1.55;0.98;;;;;;;7.68;57.35;101181.66;18418072;32;20133;-60
2022/11/28 13:08:59;;;;;;;0.82;0.82;;;;;;;8.24;55.28;101177.62;18431860;32;20137;-59
2022/11/28 13:19:09;;;;;;;0.80;0.80;;;;;;;7.48;58.14;101161.31;18435137;32;20539;-60
2022/11/28 13:29:22;;;;;;;1.75;0.98;;;;;;;6.47;61.63;101170.09;18431933;32;20081;-60
2022/11/28 13:39:32;;;;;;;0.82;0.82;;;;;;;6.62;61.38;101161.84;18432003;32;20111;-60
2022/11/28 13:49:37;;;;;;;0.80;0.80;;;;;;;6.51;61.58;101155.50;18427808;32;20123;-59
2022/11/28 13:59:40;;;;;;;0.60;0.60;;;;;;;6.58;62.10;101143.56;18412250;32;20159;-59
2022/11/28 14:09:53;;;;;;;1.17;1.15;;;;;;;7.02;61.94;101146.44;18432995;32;20132;-59
2022/11/28 14:20:06;;;;;;;1.92;1.83;;;;;;;6.74;62.13;101142.25;18432919;32;20130;-59
2022/11/28 14:30:25;;;;;;;0.70;0.70;;;;;;;6.71;62.74;101140.44;18434819;32;20183;-59
2022/11/28 14:41:05;;;;;;;3.25;2.15;;;;;;;7.06;62.62;101135.25;18433873;32;20103;-59
2022/11/28 14:51:09;;;;;;;2.03;1.83;;;;;;;6.63;63.85;101126.41;18433040;32;20530;-59
2022/11/28 15:01:16;;;;;;;0.95;0.95;;;;;;;7.04;62.81;101126.56;18419653;32;20081;-59
2022/11/28 15:11:39;;;;;;;1.17;1.05;;;;;;;6.71;63.87;101129.19;18395231;32;20154;-59
2022/11/28 15:21:45;;;;;;;0.82;0.82;;;;;;;6.81;63.69;101128.59;18368861;32;20332;-59
2022/11/28 15:31:51;;;;;;;2.15;2.05;;;;;;;6.65;64.74;101132.53;18367313;32;20180;-59
2022/11/28 15:41:55;;;;;;;2.75;2.55;;;;;;;6.35;65.92;101149.91;18369159;32;20093;-59
2022/11/28 15:52:01;;;;;;;0.70;0.70;;;;;;;7.51;62.18;101140.62;18388720;32;20125;-60
2022/11/28 16:02:13;;;;;;;0.80;0.80;;;;;;;7.59;61.85;101143.38;18413970;32;20111;-59
2022/11/28 16:12:19;;;;;;;1.08;1.05;;;;;;;7.48;61.71;101151.81;18428292;32;20097;-60
2022/11/28 16:22:28;;;;;;;1.45;1.42;;;;;;;7.41;61.58;101146.44;18399518;32;20109;-59
2022/11/28 16:32:36;;;;;;;0.55;0.55;;;;;;;7.28;61.67;101159.13;18411546;32;20092;-60
2022/11/28 16:42:40;;;;;;;1.20;1.10;;;;;;;6.46;64.69;101152.78;18417487;32;20142;-60
2022/11/28 16:52:56;;;;;;;0.93;0.93;;;;;;;6.52;64.48;101155.53;18420442;32;20351;-59
2022/11/28 17:02:59;;;;;;;2.72;1.35;;;;;;;6.16;66.07;101161.47;18436177;32;20630;-59
2022/11/28 17:13:04;;;;;;;2.12;2.03;;;;;;;6.24;65.55;101172.94;18422809;32;20097;-60
2022/11/28 17:23:07;;;;;;;5.12;2.05;;;;;;;6.41;64.86;101167.34;18418533;32;20103;-59
2022/11/28 17:33:15;;;;;;;2.12;1.75;;;;;;;5.78;67.08;101172.44;18432961;32;20493;-59
2022/11/28 17:43:20;;;;;;;2.15;1.77;;;;;;;5.91;66.42;101178.88;18432645;32;20430;-59
2022/11/28 17:53:24;;;;;;;1.45;1.40;;;;;;;6.15;64.73;101177.00;18432621;32;20097;-59
2022/11/28 18:03:28;;;;;;;3.83;1.83;;;;;;;6.14;63.97;101176.09;18428251;32;20111;-60
2022/11/28 18:13:33;;;;;;;3.95;3.62;;;;;;;5.99;63.86;101179.09;18433092;32;20460;-59
2022/11/28 18:23:37;;;;;;;6.70;1.70;;;;;;;5.91;64.09;101183.19;18428131;32;20116;-59
2022/11/28 18:33:42;;;;;;;1.35;1.25;;;;;;;5.68;63.93;101189.41;18413831;32;20138;-59
2022/11/28 18:43:45;;;;;;;3.30;2.55;;;;;;;5.45;64.56;101190.44;18415963;32;20089;-60
2022/11/28 18:53:51;;;;;;;1.30;1.02;;;;;;;5.42;65.05;101193.78;18416301;32;20123;-59
2022/11/28 19:03:55;;;;;;;16.27;6.62;;;;;;;5.37;65.05;101187.59;18431021;32;20128;-59
2022/11/28 19:14:00;;;;;;;2.10;2.00;;;;;;;5.37;65.07;101200.56;18429489;32;20119;-59
2022/11/28 19:24:06;;;;;;;1.27;1.27;;;;;;;5.30;65.82;101198.59;18431813;32;20615;-59
2022/11/28 19:34:13;;;;;;;0.60;0.60;;;;;;;5.17;66.98;101184.38;18385743;32;20101;-58
2022/11/28 19:44:17;;;;;;;5.75;3.92;;;;;;;5.34;65.99;101185.78;18385248;32;20097;-59
2022/11/28 19:54:22;;;;;;;1.52;1.15;;;;;;;5.46;65.68;101184.41;18417337;32;20486;-59
2022/11/28 20:04:25;;;;;;;0.80;0.80;;;;;;;5.38;65.91;101187.62;18414977;32;20145;-59
2022/11/28 20:14:31;;;;;;;0.60;0.60;;;;;;;5.37;65.32;101185.87;18413208;32;20116;-59
2022/11/28 20:24:34;;;;;;;0.65;0.65;;;;;;;5.24;65.77;101192.38;18410246;32;20097;-59
2022/11/28 20:34:39;;;;;;;0.40;0.40;;;;;;;5.36;65.62;101183.22;18415997;32;20115;-59
2022/11/28 20:44:42;;;;;;;0.60;0.60;;;;;;;5.28;66.03;101186.47;18384550;32;20090;-59
2022/11/28 20:54:47;;;;;;;0.95;0.90;;;;;;;5.37;66.01;101188.47;18412981;32;20101;-59
2022/11/28 21:04:50;;;;;;;1.95;1.77;;;;;;;5.40;66.27;101185.09;18406750;32;20183;-59
2022/11/28 21:14:55;;;;;;;0.60;0.60;;;;;;;5.56;66.49;101199.41;18379255;32;20137;-59
2022/11/28 21:24:58;;;;;;;14.13;3.97;;;;;;;5.66;66.74;101209.22;18371351;32;20097;-59
2022/11/28 21:35:04;;;;;;;0.90;0.90;;;;;;;5.67;67.46;101203.22;18392164;32;20394;-59
2022/11/28 21:45:08;;;;;;;0.70;0.70;;;;;;;5.87;67.09;101197.75;18392098;32;20122;-59
2022/11/28 21:55:12;;;;;;;1.40;1.35;;;;;;;5.89;66.66;101198.69;18398983;32;20107;-59
2022/11/28 22:05:16;;;;;;;0.82;0.82;;;;;;;6.03;66.30;101199.13;18399764;32;20154;-59
2022/11/28 22:15:20;;;;;;;3.03;2.65;;;;;;;6.07;66.24;101197.50;18424609;32;20097;-59
2022/11/28 22:25:24;;;;;;;1.67;1.60;;;;;;;6.17;66.01;101206.44;18428843;32;20119;-59
2022/11/28 22:35:29;;;;;;;0.73;0.73;;;;;;;6.19;65.86;101202.16;18429574;32;20451;-59
2022/11/28 22:45:32;;;;;;;0.57;0.57;;;;;;;6.27;65.73;101190.28;18433729;32;20109;-59
2022/11/28 22:55:37;;;;;;;1.12;1.10;;;;;;;6.16;66.03;101197.75;18433157;32;20097;-59
2022/11/28 23:05:40;;;;;;;1.00;0.98;;;;;;;5.38;67.83;101191.94;18433090;32;20119;-59
2022/11/28 23:15:51;;;;;;;1.45;1.35;;;;;;;5.79;67.49;101192.34;18432840;32;20111;-59
2022/11/28 23:25:55;;;;;;;1.08;1.00;;;;;;;5.86;67.21;101185.63;18432555;32;20104;-59
2022/11/28 23:35:59;;;;;;;1.12;1.02;;;;;;;6.20;66.42;101185.75;18432626;32;20088;-59
2022/11/28 23:46:03;;;;;;;6.35;2.20;;;;;;;4.78;71.20;101194.31;18431365;32;20145;-59
2022/11/28 23:56:10;;;;;;;0.55;0.55;;;;;;;4.39;73.40;101186.91;18418324;32;20105;-59
